Weather at Valdenuño-Fernandez Airstrip

Public forecast

Using degrees Celsius for public forecast. Weather courtesy of forecast.io.

Closest aviation weather report (METAR) to Valdenuño-Fernandez Airstrip

Closest report is Madrid–Torrejón Airport / Torrejón Air Base, 17.4 nm (32.1 km) SSW. Retrieved 2021/04/14 01:30 UTC (20 minutes ago):

LETO 140130Z 05004KT CAVOK 09/07 Q1019 NOSIG

Closest aviation forecast (TAF) to Valdenuño-Fernandez Airstrip

Closest forecast is Madrid–Torrejón Airport / Torrejón Air Base, 17.4 nm (32.1 km) SSW. Retrieved 2021-04-14 00:00 UTC (2 hours ago):

TAF LETO 132300Z 1400/1424 03008KT 9999 SCT040 BKN055 TX19/1415Z TN07/1406Z BECMG 1406/1407 09008KT BECMG 1412/1413 14008KT PROB30 TEMPO 1413/1418 FEW025TCU BECMG 1419/1420 07007KT